Time;durP1;ratioP1;P1;durP2;ratioP2;P2;SDS_P1;SDS_P2;PMS_P1;PMS_P2;Temp;Humidity;BMP_temperature;BMP_pressure;BME280_temperature;BME280_humidity;BME280_pressure;Samples;Min_cycle;Max_cycle;Signal;HPM_P1;HPM_P2
2021/06/06 00:01:27;;;;;;;23.08;14.82;;;14.90;99.90;;;;;;5072218;28;20104;-62
2021/06/06 00:03:57;;;;;;;17.80;13.02;;;15.00;99.90;;;;;;5081969;28;20020;-60
2021/06/06 00:06:32;;;;;;;19.80;14.75;;;15.00;99.90;;;;;;5070954;28;20040;-61
2021/06/06 00:09:00;;;;;;;25.42;16.95;;;15.00;99.90;;;;;;5062271;28;20486;-61
2021/06/06 00:11:32;;;;;;;19.27;13.60;;;14.90;99.90;;;;;;5067816;28;20390;-61
2021/06/06 00:14:00;;;;;;;25.08;16.98;;;14.80;99.90;;;;;;5077197;28;20031;-63
2021/06/06 00:16:40;;;;;;;18.40;13.63;;;14.80;99.90;;;;;;5072203;28;20032;-61
2021/06/06 00:19:07;;;;;;;18.65;13.93;;;14.70;99.90;;;;;;5073972;28;20029;-60
2021/06/06 00:21:35;;;;;;;17.15;12.30;;;14.70;99.90;;;;;;5078583;28;20490;-62
2021/06/06 00:24:01;;;;;;;20.02;14.98;;;14.60;99.90;;;;;;5075906;28;20071;-62
2021/06/06 00:26:27;;;;;;;23.85;14.95;;;14.60;99.90;;;;;;5083804;28;20033;-60
2021/06/06 00:28:53;;;;;;;21.88;15.88;;;14.50;99.90;;;;;;5073269;28;20110;-60
2021/06/06 00:31:19;;;;;;;22.13;16.00;;;14.50;99.90;;;;;;5068281;28;20031;-62
2021/06/06 00:33:46;;;;;;;24.77;16.75;;;14.50;99.90;;;;;;5071943;28;20089;-62
2021/06/06 00:36:12;;;;;;;22.67;16.27;;;14.50;99.90;;;;;;5070555;28;20039;-59
2021/06/06 00:38:38;;;;;;;21.30;16.42;;;14.40;99.90;;;;;;5072148;28;20316;-62
2021/06/06 00:41:06;;;;;;;22.35;15.30;;;14.40;99.90;;;;;;5076477;28;20455;-60
2021/06/06 00:43:33;;;;;;;23.48;14.45;;;14.30;99.90;;;;;;5072675;28;20047;-62
2021/06/06 00:45:58;;;;;;;21.63;14.82;;;14.30;99.90;;;;;;5071854;28;20060;-61
2021/06/06 00:48:24;;;;;;;21.08;15.00;;;14.20;99.90;;;;;;5070944;28;20110;-61
2021/06/06 00:50:56;;;;;;;22.45;13.57;;;14.20;99.90;;;;;;5078991;28;20039;-61
2021/06/06 00:53:38;;;;;;;18.27;13.55;;;14.10;99.90;;;;;;5069154;28;20414;-62
2021/06/06 00:56:07;;;;;;;26.70;17.77;;;14.10;99.90;;;;;;5071165;28;20032;-61
2021/06/06 00:58:33;;;;;;;20.77;16.17;;;14.10;99.90;;;;;;5078866;28;20059;-62
2021/06/06 01:00:59;;;;;;;22.65;15.98;;;14.10;99.90;;;;;;5071923;28;20157;-60
2021/06/06 01:03:26;;;;;;;23.73;17.25;;;14.10;99.90;;;;;;5071882;28;20032;-61
2021/06/06 01:06:02;;;;;;;28.15;18.83;;;14.10;99.90;;;;;;5070714;28;20479;-61
2021/06/06 01:08:32;;;;;;;32.72;20.60;;;14.00;99.90;;;;;;5073575;28;20033;-62
2021/06/06 01:11:36;;;;;;;28.63;19.63;;;14.00;99.90;;;;;;5066328;28;20029;-61
2021/06/06 01:14:36;;;;;;;25.52;18.25;;;14.00;99.90;;;;;;5045230;28;20053;-60
2021/06/06 01:17:10;;;;;;;26.98;17.58;;;13.90;99.90;;;;;;5047933;28;20058;-62
2021/06/06 01:19:45;;;;;;;25.60;17.05;;;13.90;99.90;;;;;;5081116;28;20047;-61
2021/06/06 01:22:36;;;;;;;26.70;17.42;;;13.90;99.90;;;;;;5064468;28;20198;-63
2021/06/06 01:25:36;;;;;;;25.45;16.13;;;13.80;99.90;;;;;;5061964;28;20040;-61
2021/06/06 01:28:04;;;;;;;22.65;17.25;;;13.80;99.90;;;;;;5068602;28;20056;-62
2021/06/06 01:30:34;;;;;;;23.88;17.38;;;13.80;99.90;;;;;;5062662;28;20424;-62
2021/06/06 01:33:10;;;;;;;22.75;16.90;;;13.80;99.90;;;;;;5069027;28;20041;-61
2021/06/06 01:36:11;;;;;;;28.48;16.92;;;13.80;99.90;;;;;;5073933;28;20474;-63
2021/06/06 01:38:47;;;;;;;24.25;17.20;;;13.80;99.90;;;;;;5048612;28;20063;-60
2021/06/06 01:41:16;;;;;;;23.45;16.40;;;13.70;99.90;;;;;;5068358;28;20067;-61
2021/06/06 01:43:50;;;;;;;23.25;16.23;;;13.80;99.90;;;;;;5070017;28;20051;-62
2021/06/06 01:46:21;;;;;;;25.07;16.20;;;13.70;99.90;;;;;;5070825;28;20037;-61
2021/06/06 01:48:48;;;;;;;27.80;17.13;;;13.70;99.90;;;;;;5070622;28;20267;-62
2021/06/06 01:51:25;;;;;;;22.75;16.25;;;13.80;99.90;;;;;;5071025;28;20475;-61
2021/06/06 01:53:52;;;;;;;22.05;16.40;;;13.80;99.90;;;;;;5077315;28;20036;-62
2021/06/06 01:56:28;;;;;;;22.48;16.88;;;13.70;99.90;;;;;;5072177;28;20028;-62
2021/06/06 01:59:06;;;;;;;20.05;15.65;;;13.70;99.90;;;;;;5070712;28;20094;-61
2021/06/06 02:01:33;;;;;;;23.55;15.18;;;13.60;99.90;;;;;;5070481;28;20029;-61
2021/06/06 02:03:59;;;;;;;22.55;16.23;;;13.60;99.90;;;;;;5070765;28;20547;-61
2021/06/06 02:06:40;;;;;;;20.08;14.30;;;13.60;99.90;;;;;;5070600;28;20032;-60
2021/06/06 02:09:08;;;;;;;18.33;13.10;;;13.60;99.90;;;;;;5066052;28;20096;-61
2021/06/06 02:11:45;;;;;;;16.90;14.25;;;13.50;99.90;;;;;;5068944;28;20036;-61
2021/06/06 02:14:17;;;;;;;20.95;14.20;;;13.50;99.90;;;;;;5072911;28;20035;-61
2021/06/06 02:16:46;;;;;;;18.20;12.95;;;13.40;99.90;;;;;;5074596;28;20063;-60
2021/06/06 02:19:13;;;;;;;18.10;13.25;;;13.40;99.90;;;;;;5070574;28;20025;-60
2021/06/06 02:21:39;;;;;;;15.82;12.00;;;13.40;99.90;;;;;;5056763;28;20364;-61
2021/06/06 02:24:05;;;;;;;16.08;12.35;;;13.30;99.90;;;;;;5063332;28;20028;-61
2021/06/06 02:26:39;;;;;;;14.85;11.60;;;13.30;99.90;;;;;;5069894;28;20021;-61
2021/06/06 02:29:17;;;;;;;16.50;12.90;;;13.20;99.90;;;;;;5061111;28;20044;-60
2021/06/06 02:31:46;;;;;;;15.68;12.63;;;13.10;99.90;;;;;;5073899;28;20053;-60
2021/06/06 02:34:18;;;;;;;16.30;12.88;;;13.10;99.90;;;;;;5074049;28;20463;-61
2021/06/06 02:36:52;;;;;;;17.70;12.50;;;13.10;99.90;;;;;;5066818;28;20108;-60
2021/06/06 02:39:24;;;;;;;15.55;12.63;;;13.00;99.90;;;;;;5061009;28;20072;-61
2021/06/06 02:42:19;;;;;;;16.08;12.32;;;12.90;99.90;;;;;;5071202;28;20116;-61
2021/06/06 02:45:17;;;;;;;15.15;12.50;;;12.90;99.90;;;;;;5053528;28;20062;-60
2021/06/06 02:47:45;;;;;;;16.17;12.45;;;12.90;99.90;;;;;;5058039;28;20117;-63
2021/06/06 02:50:19;;;;;;;20.73;12.27;;;12.90;99.90;;;;;;5063740;28;20054;-61
2021/06/06 02:52:49;;;;;;;18.00;12.90;;;12.80;99.90;;;;;;5069568;28;20044;-61
2021/06/06 02:55:22;;;;;;;15.13;11.95;;;12.80;99.90;;;;;;5070955;28;20036;-62
2021/06/06 02:57:57;;;;;;;15.27;12.73;;;12.70;99.90;;;;;;5062497;28;20046;-62
2021/06/06 03:00:41;;;;;;;16.90;12.80;;;12.70;99.90;;;;;;5077846;28;20029;-60
2021/06/06 03:03:20;;;;;;;18.50;13.05;;;12.60;99.90;;;;;;5076552;28;20032;-62
2021/06/06 03:05:47;;;;;;;18.65;13.68;;;12.60;99.90;;;;;;5063144;28;20032;-60
2021/06/06 03:08:14;;;;;;;17.33;12.75;;;12.60;99.90;;;;;;5062317;28;20032;-62
2021/06/06 03:10:41;;;;;;;19.20;13.73;;;12.50;99.90;;;;;;5070811;28;20040;-62
2021/06/06 03:13:17;;;;;;;18.98;14.07;;;12.50;99.90;;;;;;5068665;28;20051;-62
2021/06/06 03:15:46;;;;;;;19.38;13.27;;;12.50;99.90;;;;;;5073633;28;20527;-61
2021/06/06 03:18:13;;;;;;;18.98;14.27;;;12.40;99.90;;;;;;5072751;28;20063;-61
2021/06/06 03:20:42;;;;;;;18.90;14.15;;;12.50;99.90;;;;;;5075443;28;20036;-61
2021/06/06 03:23:10;;;;;;;20.50;13.45;;;12.40;99.90;;;;;;5069792;28;20075;-60
2021/06/06 03:25:42;;;;;;;16.73;12.60;;;12.40;99.90;;;;;;5066556;28;20074;-62
2021/06/06 03:28:10;;;;;;;18.98;13.07;;;12.40;99.90;;;;;;5068796;28;20051;-63
2021/06/06 03:30:49;;;;;;;19.75;14.57;;;12.40;99.90;;;;;;5076117;28;20032;-60
2021/06/06 03:33:22;;;;;;;16.92;12.90;;;12.40;99.90;;;;;;5074713;28;20032;-61
2021/06/06 03:35:48;;;;;;;20.08;13.60;;;12.40;99.90;;;;;;5068635;28;20025;-60
2021/06/06 03:38:15;;;;;;;17.73;13.20;;;12.40;99.90;;;;;;5068439;28;20028;-61
2021/06/06 03:40:44;;;;;;;15.93;12.82;;;12.40;99.90;;;;;;5072648;28;20029;-61
2021/06/06 03:43:12;;;;;;;17.90;13.43;;;12.40;99.90;;;;;;5074348;28;20024;-62
2021/06/06 03:49:19;;;;;;;18.40;13.07;;;12.30;99.90;;;;;;5075896;28;20073;-61
2021/06/06 03:51:46;;;;;;;19.83;13.35;;;12.30;99.90;;;;;;5075278;28;20525;-61
2021/06/06 03:57:34;;;;;;;19.02;12.98;;;12.10;99.90;;;;;;5075296;28;20078;-60
2021/06/06 04:00:01;;;;;;;17.85;13.55;;;12.10;99.90;;;;;;5075340;28;20025;-61
2021/06/06 04:02:26;;;;;;;16.70;13.48;;;12.10;99.90;;;;;;5075188;28;20036;-62
2021/06/06 04:08:33;;;;;;;22.23;13.18;;;12.00;99.90;;;;;;5075417;28;20082;-61
2021/06/06 04:10:59;;;;;;;18.85;13.88;;;12.00;99.90;;;;;;5075542;28;20084;-60
2021/06/06 04:13:26;;;;;;;21.75;14.35;;;11.90;99.90;;;;;;5073199;28;20052;-63
2021/06/06 04:15:52;;;;;;;19.75;14.60;;;11.90;99.90;;;;;;5079913;28;20068;-62
2021/06/06 04:18:21;;;;;;;24.10;15.02;;;11.90;99.90;;;;;;5072132;28;20568;-61
2021/06/06 04:20:49;;;;;;;20.38;15.00;;;11.90;99.90;;;;;;5082814;28;20036;-61
2021/06/06 04:23:15;;;;;;;22.33;15.63;;;12.00;99.90;;;;;;5076331;28;20043;-59
2021/06/06 04:25:41;;;;;;;19.40;15.13;;;12.00;99.90;;;;;;5070446;28;20032;-61
2021/06/06 04:28:08;;;;;;;19.42;15.45;;;12.10;99.90;;;;;;5074209;28;20067;-60
2021/06/06 04:30:34;;;;;;;21.83;15.38;;;12.10;99.90;;;;;;5080440;28;20040;-60
2021/06/06 04:33:02;;;;;;;21.33;15.75;;;12.20;99.90;;;;;;5071041;28;20040;-60
2021/06/06 04:35:28;;;;;;;22.45;15.90;;;12.20;99.90;;;;;;5072467;28;20032;-59
2021/06/06 04:37:54;;;;;;;21.80;15.45;;;12.30;99.90;;;;;;5071015;28;20037;-61
2021/06/06 04:40:19;;;;;;;20.90;15.57;;;12.30;99.90;;;;;;5064334;28;20478;-61
2021/06/06 04:42:46;;;;;;;24.70;16.67;;;12.30;99.90;;;;;;5071039;28;20032;-62
2021/06/06 04:45:13;;;;;;;23.55;15.90;;;12.30;99.90;;;;;;5071776;28;20426;-60
2021/06/06 04:47:39;;;;;;;28.98;15.85;;;12.40;99.90;;;;;;5063764;28;20111;-60
2021/06/06 04:50:08;;;;;;;18.75;14.65;;;12.40;99.90;;;;;;5063526;28;20043;-60
2021/06/06 04:52:37;;;;;;;19.15;15.18;;;12.40;99.90;;;;;;5072084;28;20036;-61
2021/06/06 04:55:18;;;;;;;21.55;14.88;;;12.40;99.90;;;;;;5071124;28;20032;-61
2021/06/06 04:57:44;;;;;;;19.05;14.68;;;12.40;99.90;;;;;;5078951;28;20051;-62
2021/06/06 05:00:16;;;;;;;21.13;14.55;;;12.40;99.90;;;;;;5076020;28;20024;-61
2021/06/06 05:02:43;;;;;;;17.92;14.32;;;12.50;99.90;;;;;;5075746;28;20043;-61
2021/06/06 05:05:10;;;;;;;16.35;13.90;;;12.50;99.90;;;;;;5071279;28;20060;-60
2021/06/06 05:07:36;;;;;;;20.77;14.40;;;12.60;99.90;;;;;;5070491;28;20029;-61
2021/06/06 05:10:04;;;;;;;17.27;13.90;;;12.70;99.90;;;;;;5071905;28;20030;-60
2021/06/06 05:12:30;;;;;;;21.48;14.90;;;12.80;99.90;;;;;;5071275;28;20040;-61
2021/06/06 05:14:56;;;;;;;20.88;14.75;;;12.80;99.90;;;;;;5076002;28;20043;-61
2021/06/06 05:17:21;;;;;;;19.77;14.02;;;12.90;99.90;;;;;;5071041;28;20052;-61
2021/06/06 05:19:47;;;;;;;19.65;15.00;;;12.90;99.90;;;;;;5071892;28;20112;-62
2021/06/06 05:22:13;;;;;;;21.83;15.27;;;13.00;99.90;;;;;;5070190;28;20025;-60
2021/06/06 05:24:38;;;;;;;19.67;14.88;;;13.10;99.90;;;;;;5071177;28;20046;-61
2021/06/06 05:27:05;;;;;;;23.35;15.10;;;13.20;99.90;;;;;;5070715;28;20028;-61
2021/06/06 05:29:30;;;;;;;23.05;15.13;;;13.20;99.90;;;;;;5071616;28;20062;-62
2021/06/06 05:31:56;;;;;;;24.10;15.50;;;13.30;99.90;;;;;;5074812;28;20024;-60
2021/06/06 05:34:22;;;;;;;21.33;15.52;;;13.40;99.90;;;;;;5076615;28;20074;-61
2021/06/06 05:36:48;;;;;;;26.20;14.63;;;13.50;99.90;;;;;;5078358;28;20031;-62
2021/06/06 05:39:14;;;;;;;25.90;15.60;;;13.50;99.90;;;;;;5070061;28;20107;-61
2021/06/06 05:41:40;;;;;;;22.67;15.43;;;13.60;99.90;;;;;;5085347;28;20034;-60
2021/06/06 05:44:07;;;;;;;22.48;16.20;;;13.70;99.90;;;;;;5071773;28;20085;-61
2021/06/06 05:46:33;;;;;;;22.02;16.50;;;13.80;99.90;;;;;;5079099;28;20039;-60
2021/06/06 05:48:59;;;;;;;28.85;16.50;;;13.90;99.90;;;;;;5072298;28;20037;-62
2021/06/06 05:51:25;;;;;;;24.65;15.75;;;14.00;99.90;;;;;;5068865;28;20095;-62
2021/06/06 05:53:51;;;;;;;23.38;15.80;;;14.00;99.90;;;;;;5071390;28;20074;-61
2021/06/06 05:56:17;;;;;;;24.60;16.45;;;14.20;99.90;;;;;;5071239;28;20052;-61
2021/06/06 05:58:43;;;;;;;23.40;15.88;;;14.30;99.90;;;;;;5072761;28;20071;-60
2021/06/06 06:01:10;;;;;;;23.52;14.55;;;14.30;99.90;;;;;;5074870;28;20070;-61
2021/06/06 06:03:36;;;;;;;19.42;14.00;;;14.40;99.90;;;;;;5070733;28;20024;-61
2021/06/06 06:06:03;;;;;;;24.92;13.50;;;14.50;99.90;;;;;;5072818;28;20482;-60
2021/06/06 06:08:34;;;;;;;21.73;14.05;;;14.50;99.90;;;;;;5066766;28;20484;-61
2021/06/06 06:11:03;;;;;;;17.33;12.35;;;14.70;99.90;;;;;;5071143;28;20040;-61
2021/06/06 06:13:30;;;;;;;17.90;11.35;;;14.90;99.90;;;;;;5068460;28;20047;-61
2021/06/06 06:15:57;;;;;;;18.30;10.88;;;15.10;99.90;;;;;;5071020;28;20450;-61
2021/06/06 06:18:25;;;;;;;18.65;11.10;;;15.20;99.90;;;;;;5066935;28;20028;-62
2021/06/06 06:20:51;;;;;;;20.05;11.30;;;15.30;99.90;;;;;;5071385;28;20029;-61
2021/06/06 06:23:18;;;;;;;20.05;10.90;;;15.40;99.90;;;;;;5070477;28;20059;-61
2021/06/06 06:25:44;;;;;;;15.57;10.48;;;15.50;99.90;;;;;;5066036;28;20032;-61
2021/06/06 06:28:10;;;;;;;21.55;10.38;;;15.50;99.90;;;;;;5069256;28;20056;-63
2021/06/06 06:30:38;;;;;;;16.08;10.13;;;15.60;99.90;;;;;;5063754;28;20039;-62
2021/06/06 06:33:04;;;;;;;21.08;9.57;;;15.60;99.90;;;;;;5066165;28;20474;-61
2021/06/06 06:35:30;;;;;;;21.35;9.98;;;15.70;99.90;;;;;;5067468;28;20040;-62
2021/06/06 06:37:56;;;;;;;20.95;9.82;;;15.90;99.90;;;;;;5070565;28;20039;-61
2021/06/06 06:40:23;;;;;;;20.95;10.18;;;16.00;99.90;;;;;;5070287;28;20025;-62
2021/06/06 06:42:49;;;;;;;13.07;9.35;;;16.10;99.90;;;;;;5061052;28;20051;-60
2021/06/06 06:45:20;;;;;;;12.85;8.93;;;16.30;99.90;;;;;;5067315;28;20032;-61
2021/06/06 06:47:47;;;;;;;14.52;8.75;;;16.40;99.90;;;;;;5072071;28;20020;-63
2021/06/06 06:50:15;;;;;;;16.88;8.32;;;16.60;99.90;;;;;;5069149;28;20081;-61
2021/06/06 06:52:41;;;;;;;13.50;8.25;;;16.70;99.90;;;;;;5065809;28;20082;-61
2021/06/06 06:55:15;;;;;;;14.43;7.88;;;16.80;99.90;;;;;;5059187;28;20024;-61
2021/06/06 06:57:41;;;;;;;16.08;7.82;;;17.00;99.90;;;;;;5066257;28;20036;-61
2021/06/06 07:00:14;;;;;;;14.57;8.73;;;17.10;99.90;;;;;;5058431;28;20363;-61
2021/06/06 07:02:39;;;;;;;16.05;7.72;;;17.30;99.90;;;;;;5064690;28;20051;-61
2021/06/06 07:05:06;;;;;;;17.38;7.10;;;17.30;99.90;;;;;;5061142;28;20422;-61
2021/06/06 07:07:32;;;;;;;13.85;7.05;;;17.40;99.90;;;;;;5070722;28;20047;-62
2021/06/06 07:09:58;;;;;;;14.60;6.68;;;17.50;99.90;;;;;;5073789;28;20394;-62
2021/06/06 07:12:24;;;;;;;34.97;7.70;;;17.60;99.90;;;;;;5071555;28;20051;-62
2021/06/06 07:14:50;;;;;;;13.23;6.90;;;17.60;99.90;;;;;;5075508;28;20024;-61
2021/06/06 07:17:16;;;;;;;15.68;7.50;;;17.60;99.90;;;;;;5082556;28;20075;-61
2021/06/06 07:19:42;;;;;;;16.08;7.25;;;17.70;99.90;;;;;;5070583;28;20488;-61
2021/06/06 07:22:08;;;;;;;15.55;7.68;;;17.60;99.90;;;;;;5080509;28;20032;-61
2021/06/06 07:24:34;;;;;;;15.18;7.72;;;17.80;99.90;;;;;;5072609;28;20587;-62
2021/06/06 07:27:01;;;;;;;18.65;7.57;;;17.70;99.90;;;;;;5076794;28;20397;-61
2021/06/06 07:29:30;;;;;;;15.07;7.38;;;17.70;99.90;;;;;;5080198;28;20055;-62
2021/06/06 07:31:58;;;;;;;19.15;7.15;;;17.80;99.90;;;;;;5082354;28;20037;-61
2021/06/06 07:34:25;;;;;;;18.10;7.43;;;17.90;99.90;;;;;;5078549;28;20693;-62
2021/06/06 07:36:56;;;;;;;14.52;7.07;;;18.00;99.90;;;;;;5073719;28;20025;-63
2021/06/06 07:39:22;;;;;;;14.43;6.80;;;18.10;99.90;;;;;;5073311;28;20039;-61
2021/06/06 07:41:48;;;;;;;18.58;7.45;;;18.20;99.90;;;;;;5078730;28;20556;-60
2021/06/06 07:44:15;;;;;;;17.00;7.25;;;18.30;99.90;;;;;;5077019;28;20111;-61
2021/06/06 07:46:41;;;;;;;17.27;7.43;;;18.20;99.90;;;;;;5073139;28;20032;-62
2021/06/06 07:49:08;;;;;;;14.98;6.68;;;18.20;99.90;;;;;;5073920;28;20029;-61
2021/06/06 07:51:34;;;;;;;13.85;7.22;;;18.30;99.90;;;;;;5078170;28;20110;-61
2021/06/06 07:54:01;;;;;;;18.80;7.72;;;18.40;99.90;;;;;;5070878;28;20111;-62
2021/06/06 07:56:26;;;;;;;16.38;6.90;;;18.40;99.90;;;;;;5068585;28;20036;-62
2021/06/06 07:58:52;;;;;;;18.80;7.50;;;18.50;99.90;;;;;;5077765;28;20032;-61
2021/06/06 08:01:18;;;;;;;18.30;6.57;;;18.60;99.90;;;;;;5075774;28;20032;-60
2021/06/06 08:03:44;;;;;;;16.58;7.07;;;18.60;99.90;;;;;;5071974;28;20044;-60
2021/06/06 08:06:12;;;;;;;16.17;6.93;;;18.80;99.90;;;;;;5075365;28;20033;-61
2021/06/06 08:08:38;;;;;;;18.33;6.03;;;19.00;99.90;;;;;;5063849;28;20036;-59
2021/06/06 08:11:06;;;;;;;18.30;6.68;;;19.10;99.90;;;;;;5062214;28;20523;-61
2021/06/06 08:13:31;;;;;;;22.08;5.95;;;19.10;99.90;;;;;;5080772;28;20032;-59
2021/06/06 08:15:58;;;;;;;19.35;6.07;;;19.10;99.90;;;;;;5080742;28;20036;-62
2021/06/06 08:18:30;;;;;;;10.45;6.07;;;19.30;99.90;;;;;;5069540;28;20032;-60
2021/06/06 08:21:05;;;;;;;16.73;7.22;;;19.40;99.90;;;;;;5072322;28;20024;-61
2021/06/06 08:23:31;;;;;;;;;;;19.50;99.90;;;;;;5072366;28;20064;-60
2021/06/06 08:25:57;;;;;;;12.55;6.60;;;19.60;99.90;;;;;;5075529;28;19938;-63
2021/06/06 08:28:23;;;;;;;18.60;7.82;;;19.80;99.90;;;;;;5066350;28;20482;-61
2021/06/06 08:30:53;;;;;;;17.35;7.72;;;19.90;99.90;;;;;;5081948;28;20028;-61
2021/06/06 08:33:21;;;;;;;22.85;9.23;;;20.10;99.90;;;;;;5068385;28;20025;-61
2021/06/06 08:35:48;;;;;;;15.85;6.38;;;20.30;99.90;;;;;;5072797;28;20410;-61
2021/06/06 08:38:14;;;;;;;21.95;6.32;;;20.30;99.90;;;;;;5067548;28;20129;-61
2021/06/06 08:40:49;;;;;;;12.43;5.15;;;20.40;99.90;;;;;;5064114;28;20104;-61
2021/06/06 08:43:15;;;;;;;10.30;5.82;;;20.50;99.90;;;;;;5053410;28;20036;-61
2021/06/06 08:45:48;;;;;;;9.80;5.10;;;20.70;99.90;;;;;;5071562;28;20074;-61
2021/06/06 08:48:17;;;;;;;15.50;5.00;;;20.90;99.90;;;;;;5065948;28;20064;-60
2021/06/06 08:50:47;;;;;;;11.93;4.72;;;21.00;99.90;;;;;;5065528;28;20020;-62
2021/06/06 08:53:31;;;;;;;14.23;5.00;;;21.10;99.90;;;;;;5077917;28;20036;-61
2021/06/06 08:55:56;;;;;;;7.72;3.83;;;21.20;99.90;;;;;;5072167;28;20055;-60
2021/06/06 08:58:44;;;;;;;16.45;4.30;;;21.40;99.90;;;;;;5073241;28;20071;-60
2021/06/06 09:01:25;;;;;;;9.30;3.83;;;21.60;99.90;;;;;;5069822;28;20059;-60
2021/06/06 09:03:56;;;;;;;14.48;3.80;;;21.60;99.90;;;;;;5076514;28;20031;-60
2021/06/06 09:06:47;;;;;;;12.43;3.70;;;21.60;99.90;;;;;;5069579;28;20033;-60
2021/06/06 09:09:13;;;;;;;9.40;3.40;;;21.80;99.90;;;;;;5066263;28;20089;-60
2021/06/06 09:11:40;;;;;;;10.48;3.40;;;21.90;99.90;;;;;;5081569;28;20024;-60
2021/06/06 09:14:07;;;;;;;10.80;3.75;;;22.00;99.90;;;;;;5078826;28;20040;-62
2021/06/06 09:16:57;;;;;;;10.93;3.03;;;22.10;99.90;;;;;;5067378;28;20382;-60
2021/06/06 09:19:24;;;;;;;7.10;3.00;;;22.30;99.90;;;;;;5068262;28;20129;-60
2021/06/06 09:22:02;;;;;;;8.50;2.95;;;22.20;99.90;;;;;;5062096;28;20544;-62
2021/06/06 09:24:37;;;;;;;12.10;3.33;;;22.30;99.90;;;;;;5068644;28;20040;-62
2021/06/06 09:27:16;;;;;;;8.10;3.30;;;22.50;99.90;;;;;;5063362;28;20035;-60
2021/06/06 09:29:44;;;;;;;7.22;2.40;;;22.50;99.90;;;;;;5075139;28;20158;-60
2021/06/06 09:32:19;;;;;;;6.05;2.10;;;22.60;99.90;;;;;;5072252;28;20071;-59
2021/06/06 09:35:17;;;;;;;3.72;2.10;;;22.60;99.90;;;;;;5068849;28;20028;-60
2021/06/06 09:37:49;;;;;;;6.53;2.53;;;22.70;99.90;;;;;;5066763;28;20059;-61
2021/06/06 09:40:31;;;;;;;6.43;2.10;;;22.60;99.90;;;;;;5067563;28;20048;-61
2021/06/06 09:42:57;;;;;;;5.90;2.30;;;22.70;99.90;;;;;;5070890;28;20057;-60
2021/06/06 09:45:32;;;;;;;5.93;2.10;;;22.80;99.90;;;;;;5071001;28;20402;-61
2021/06/06 09:48:03;;;;;;;8.50;2.25;;;22.80;99.90;;;;;;5071531;28;20031;-64
2021/06/06 09:50:43;;;;;;;5.70;2.42;;;23.00;99.90;;;;;;5065666;28;20054;-61
2021/06/06 09:53:13;;;;;;;15.70;6.35;;;23.10;99.90;;;;;;5082232;28;20064;-60
2021/06/06 09:55:39;;;;;;;5.70;2.15;;;23.00;99.90;;;;;;5078055;28;20114;-62
2021/06/06 09:58:30;;;;;;;9.40;2.10;;;23.20;99.90;;;;;;5078429;28;20506;-60
2021/06/06 10:01:05;;;;;;;9.73;2.38;;;23.50;99.90;;;;;;5065729;28;20108;-60
2021/06/06 10:03:36;;;;;;;9.57;2.10;;;23.70;99.90;;;;;;5058326;28;20072;-62
2021/06/06 10:06:20;;;;;;;7.25;2.60;;;23.80;99.90;;;;;;5074319;28;20502;-61
2021/06/06 10:09:07;;;;;;;7.47;2.45;;;23.60;99.90;;;;;;5073388;28;20145;-62
2021/06/06 10:11:53;;;;;;;24.20;2.72;;;23.50;99.90;;;;;;5069377;28;20029;-60
2021/06/06 10:14:24;;;;;;;11.68;2.70;;;23.40;99.90;;;;;;5052048;28;20037;-60
2021/06/06 10:16:53;;;;;;;5.03;2.00;;;23.10;99.90;;;;;;5078561;28;20021;-60
2021/06/06 10:19:38;;;;;;;9.90;3.00;;;23.00;99.90;;;;;;5065433;28;20017;-61
2021/06/06 10:22:20;;;;;;;7.72;2.70;;;22.90;99.90;;;;;;5059854;28;20078;-62
2021/06/06 10:24:48;;;;;;;5.88;2.92;;;23.00;99.90;;;;;;5068545;28;20390;-63
2021/06/06 10:27:24;;;;;;;6.85;2.63;;;22.90;99.90;;;;;;5064968;28;20112;-61
2021/06/06 10:30:05;;;;;;;8.88;3.40;;;23.20;99.90;;;;;;5063744;28;20521;-61
2021/06/06 10:32:40;;;;;;;6.57;2.78;;;23.10;99.90;;;;;;5078659;28;20127;-63
2021/06/06 10:35:16;;;;;;;13.25;5.63;;;23.10;99.90;;;;;;5069154;28;20054;-62
2021/06/06 10:37:45;;;;;;;12.00;2.60;;;23.10;99.90;;;;;;5067089;28;20036;-60
2021/06/06 10:40:33;;;;;;;8.02;2.88;;;23.00;99.90;;;;;;5068323;28;20479;-61
2021/06/06 10:43:26;;;;;;;5.63;2.30;;;23.10;99.90;;;;;;5065765;28;20032;-60
2021/06/06 10:46:04;;;;;;;9.02;2.63;;;23.10;99.90;;;;;;5057791;28;20036;-61
2021/06/06 10:48:35;;;;;;;5.72;2.20;;;23.20;99.90;;;;;;5057371;28;20036;-62
2021/06/06 10:51:31;;;;;;;6.15;2.28;;;23.30;99.90;;;;;;5069964;28;20024;-61
2021/06/06 10:54:03;;;;;;;7.68;2.60;;;23.30;99.90;;;;;;5061702;28;20036;-62
2021/06/06 10:56:36;;;;;;;6.88;2.30;;;23.20;99.90;;;;;;5081588;28;20040;-60
2021/06/06 10:59:07;;;;;;;9.18;2.40;;;23.00;99.90;;;;;;5068779;28;20465;-61
2021/06/06 11:01:41;;;;;;;6.72;2.47;;;23.00;99.90;;;;;;5070439;28;20025;-63
2021/06/06 11:04:12;;;;;;;9.60;2.60;;;23.10;99.90;;;;;;5066748;28;20029;-63
2021/06/06 11:06:39;;;;;;;7.38;2.42;;;23.20;99.90;;;;;;5084512;28;20082;-61
2021/06/06 11:09:18;;;;;;;10.35;2.90;;;23.20;99.90;;;;;;5057708;28;20090;-63
2021/06/06 11:12:03;;;;;;;4.15;1.98;;;23.30;99.90;;;;;;5072699;28;20016;-60
2021/06/06 11:14:49;;;;;;;6.53;2.30;;;23.40;99.90;;;;;;5065629;28;20036;-61
2021/06/06 11:17:15;;;;;;;11.38;2.55;;;23.40;99.90;;;;;;5069064;28;20079;-62
2021/06/06 11:19:41;;;;;;;6.43;2.72;;;23.30;99.90;;;;;;5067946;28;20452;-65
2021/06/06 11:22:07;;;;;;;7.25;2.35;;;23.40;99.90;;;;;;5063771;28;20043;-61
2021/06/06 11:24:42;;;;;;;5.82;2.65;;;23.50;99.90;;;;;;5068001;28;20465;-60
2021/06/06 11:27:10;;;;;;;5.13;2.28;;;23.50;99.90;;;;;;5068250;28;20033;-60
2021/06/06 11:29:44;;;;;;;9.07;3.00;;;23.30;99.90;;;;;;5080041;28;20047;-60
2021/06/06 11:32:39;;;;;;;7.10;2.60;;;23.30;99.90;;;;;;5074504;28;20123;-60
2021/06/06 11:35:05;;;;;;;8.40;3.40;;;23.30;99.90;;;;;;5065293;28;20029;-61
2021/06/06 11:37:44;;;;;;;6.95;3.03;;;23.40;99.90;;;;;;5072266;28;20032;-60
2021/06/06 11:40:55;;;;;;;6.63;2.80;;;23.50;99.90;;;;;;5079223;28;20032;-61
2021/06/06 11:43:23;;;;;;;8.77;2.78;;;23.80;99.90;;;;;;5053552;28;20044;-61
2021/06/06 11:45:52;;;;;;;7.55;2.65;;;23.80;99.90;;;;;;5068185;28;20036;-60
2021/06/06 11:48:30;;;;;;;6.30;2.45;;;24.00;99.90;;;;;;5072868;28;20645;-60
2021/06/06 11:50:58;;;;;;;4.75;2.50;;;24.20;99.90;;;;;;5069758;28;20036;-62
2021/06/06 11:53:27;;;;;;;5.75;2.72;;;24.60;99.90;;;;;;5068121;28;20043;-61
2021/06/06 11:56:06;;;;;;;8.85;3.00;;;24.60;99.90;;;;;;5073844;28;20446;-61
2021/06/06 11:58:45;;;;;;;8.43;2.72;;;24.70;99.90;;;;;;5083780;28;20024;-62
2021/06/06 12:01:22;;;;;;;8.80;3.10;;;24.70;99.90;;;;;;5058331;28;20031;-62
2021/06/06 12:03:50;;;;;;;7.35;2.88;;;24.70;99.90;;;;;;5063535;28;20047;-61
2021/06/06 12:06:23;;;;;;;18.65;3.70;;;24.60;99.90;;;;;;5074141;28;20025;-61
2021/06/06 12:08:56;;;;;;;6.70;2.80;;;24.60;99.90;;;;;;5072374;28;20032;-61
2021/06/06 12:11:26;;;;;;;17.20;3.13;;;24.50;99.90;;;;;;5071378;28;20075;-61
2021/06/06 12:14:07;;;;;;;9.70;3.25;;;24.50;99.90;;;;;;5076600;28;20555;-61
2021/06/06 12:16:33;;;;;;;8.32;3.33;;;24.40;99.90;;;;;;5077530;28;20028;-62
2021/06/06 12:19:15;;;;;;;7.38;3.40;;;24.20;99.90;;;;;;5072569;28;20539;-61
2021/06/06 12:21:44;;;;;;;7.22;3.10;;;24.20;99.90;;;;;;5077585;28;20050;-61
2021/06/06 12:24:17;;;;;;;8.65;3.55;;;24.30;99.90;;;;;;5069454;28;20437;-60
2021/06/06 12:27:00;;;;;;;7.50;2.90;;;24.20;99.90;;;;;;5071388;28;20029;-60
2021/06/06 12:29:28;;;;;;;11.73;3.35;;;24.10;99.90;;;;;;5071332;28;20466;-61
2021/06/06 12:31:54;;;;;;;8.18;3.15;;;24.00;99.90;;;;;;5071678;28;20098;-60
2021/06/06 12:34:27;;;;;;;6.47;2.90;;;24.00;99.90;;;;;;5074331;28;20032;-61
2021/06/06 12:37:06;;;;;;;5.55;2.90;;;24.10;99.90;;;;;;5072136;28;20078;-60
2021/06/06 12:39:42;;;;;;;8.48;3.20;;;24.10;99.90;;;;;;5073964;28;20035;-62
2021/06/06 12:42:09;;;;;;;7.68;3.25;;;24.00;99.90;;;;;;5064160;28;20024;-62
2021/06/06 12:44:41;;;;;;;10.32;2.80;;;23.80;99.90;;;;;;5067688;28;20035;-60
2021/06/06 12:47:21;;;;;;;7.70;3.13;;;23.80;99.90;;;;;;5069661;28;20844;-60
2021/06/06 12:50:18;;;;;;;9.15;2.95;;;23.80;99.90;;;;;;5068510;28;20055;-61
2021/06/06 12:52:50;;;;;;;9.70;3.60;;;23.60;99.90;;;;;;5067937;28;20041;-62
2021/06/06 12:55:30;;;;;;;9.82;3.15;;;23.50;99.90;;;;;;5063695;28;20017;-62
2021/06/06 12:58:04;;;;;;;6.88;3.33;;;23.60;99.90;;;;;;5072816;28;20029;-63
2021/06/06 13:00:33;;;;;;;9.23;2.83;;;23.60;99.90;;;;;;5069594;28;20029;-62
2021/06/06 13:03:01;;;;;;;7.72;2.85;;;23.70;99.90;;;;;;5073697;28;20036;-62
2021/06/06 13:05:30;;;;;;;7.20;3.28;;;23.70;99.90;;;;;;5071471;28;20028;-61
2021/06/06 13:07:57;;;;;;;5.82;2.97;;;23.90;99.90;;;;;;5068260;28;20379;-62